Kezdőlap
METAR-TAF:

METAR-TAF

Repülőterek :

Knoxville Municipal Airport

Knoxville, Iowa, Amerikai Egyesült Államok

földrajzi szélesség: 41-18N, földrajzi hosszúság: 093-07W, magasság: 283 m

Jelenlegi meteorológiai megfigyelések

A jelentés 30 perccel ezelõtt készült, 00:35 UTC
Szélcsend
Hőmérséklet 8°C
Páratartalom 53%
Légköri nyomás 1020 hPa
Látótávolság: 16.1 km
Borult 11000 lábon

METAR: KOXV 050035Z AUTO 00000KT 10SM OVC110 08/M01 A3012 RMK AO2

Idő: 20:05 (01:05 UTC)


TAF: hiányzik

Meteorológiai megfigyelések és előrejelzések több, mint 4000 repülőtéren (METAR és TAF jelentéseket).

A térképen piros és sárga pontok jelzik az elérhető meteorológiai állomásokat.

Mozgassa az egeret a pont fölött, hogy megjelenjen az állomás neve.

Azután kattintson az időjárási megfigyelések és előrejelzések megtekintéséhez.

A térkép megváltoztatása: kattintson a fekete keresztel jelölt zöld gombra ráközelítéshez, a vonallal jelölt zöld gombra távolításhoz, vagy a zöld nyilakra a szomszédos térképek eléréséhez.


METAR-TAF: